LGBL

Nea Anchialos

Airport
ICAO code
LGBL
IATA Code
VOL
Summary
ICAO Region
EUR
ICAO Territory
Location

Nea Anchialos, Thessaly

Serving
Volos
Elevation
83 ft
Coordinates
39° 13' 11" N , 22° 47' 39" E
KCC
Metar
LGBL 041120Z 09010KT 9999 FEW025 16/12 Q1012

Description

Civil/military airport serving Volos and surrounding area in Greece.

Climatology

Mediterranean climate (Köppen climate classification Csa) - Hot, dry summer and a mild wet winter.

Runways

Designator Length Width Surface Rops
8/26 2759 45 ASP Yes/Yes

Airport map

Aerial View

SKYbrary Partners:

Safety knowledge contributed by: